sensor_id;sensor_type;location;lat;lon;timestamp;P1;durP1;ratioP1;P2;durP2;ratioP2
69822;SDS011;57119;52.516;13.508;2023-02-03T00:01:00;10.87;;;3.43;;
69822;SDS011;57119;52.516;13.508;2023-02-03T00:03:26;13.13;;;3.53;;
69822;SDS011;57119;52.516;13.508;2023-02-03T00:05:51;11.47;;;3.57;;
69822;SDS011;57119;52.516;13.508;2023-02-03T00:08:18;9.77;;;3.45;;
69822;SDS011;57119;52.516;13.508;2023-02-03T00:10:44;8.73;;;3.42;;
69822;SDS011;57119;52.516;13.508;2023-02-03T00:13:10;12.98;;;3.30;;
69822;SDS011;57119;52.516;13.508;2023-02-03T00:15:35;10.68;;;4.00;;
69822;SDS011;57119;52.516;13.508;2023-02-03T00:18:01;9.52;;;3.78;;
69822;SDS011;57119;52.516;13.508;2023-02-03T00:20:26;9.97;;;2.80;;
69822;SDS011;57119;52.516;13.508;2023-02-03T00:22:52;11.63;;;3.55;;
69822;SDS011;57119;52.516;13.508;2023-02-03T00:25:18;11.00;;;2.70;;
69822;SDS011;57119;52.516;13.508;2023-02-03T00:27:45;14.10;;;3.55;;
69822;SDS011;57119;52.516;13.508;2023-02-03T00:30:11;11.90;;;3.27;;
69822;SDS011;57119;52.516;13.508;2023-02-03T00:32:36;13.33;;;3.30;;
69822;SDS011;57119;52.516;13.508;2023-02-03T00:35:02;12.82;;;3.20;;
69822;SDS011;57119;52.516;13.508;2023-02-03T00:37:28;10.27;;;3.13;;
69822;SDS011;57119;52.516;13.508;2023-02-03T00:39:53;12.20;;;2.80;;
69822;SDS011;57119;52.516;13.508;2023-02-03T00:42:18;11.57;;;3.23;;
69822;SDS011;57119;52.516;13.508;2023-02-03T00:44:44;13.57;;;3.47;;
69822;SDS011;57119;52.516;13.508;2023-02-03T00:47:09;19.23;;;3.77;;
69822;SDS011;57119;52.516;13.508;2023-02-03T00:49:34;9.90;;;2.60;;
69822;SDS011;57119;52.516;13.508;2023-02-03T00:52:00;10.50;;;3.07;;
69822;SDS011;57119;52.516;13.508;2023-02-03T00:54:25;13.77;;;3.28;;
69822;SDS011;57119;52.516;13.508;2023-02-03T00:56:50;17.00;;;3.30;;
69822;SDS011;57119;52.516;13.508;2023-02-03T00:59:16;10.33;;;3.13;;
69822;SDS011;57119;52.516;13.508;2023-02-03T01:01:41;14.47;;;3.53;;
69822;SDS011;57119;52.516;13.508;2023-02-03T01:04:06;11.23;;;2.70;;
69822;SDS011;57119;52.516;13.508;2023-02-03T01:06:32;16.57;;;3.13;;
69822;SDS011;57119;52.516;13.508;2023-02-03T01:08:57;8.10;;;3.00;;
69822;SDS011;57119;52.516;13.508;2023-02-03T01:11:24;14.15;;;3.13;;
69822;SDS011;57119;52.516;13.508;2023-02-03T01:13:54;12.63;;;3.35;;
69822;SDS011;57119;52.516;13.508;2023-02-03T01:16:20;12.70;;;3.15;;
69822;SDS011;57119;52.516;13.508;2023-02-03T01:18:48;11.00;;;3.65;;
69822;SDS011;57119;52.516;13.508;2023-02-03T01:21:15;18.80;;;3.13;;
69822;SDS011;57119;52.516;13.508;2023-02-03T01:23:43;10.52;;;2.42;;
69822;SDS011;57119;52.516;13.508;2023-02-03T01:26:13;14.90;;;3.33;;
69822;SDS011;57119;52.516;13.508;2023-02-03T01:28:40;9.32;;;3.00;;
69822;SDS011;57119;52.516;13.508;2023-02-03T01:31:09;11.70;;;3.45;;
69822;SDS011;57119;52.516;13.508;2023-02-03T01:33:40;11.73;;;3.38;;
69822;SDS011;57119;52.516;13.508;2023-02-03T01:36:09;14.80;;;3.35;;
69822;SDS011;57119;52.516;13.508;2023-02-03T01:38:35;13.73;;;3.53;;
69822;SDS011;57119;52.516;13.508;2023-02-03T01:41:01;11.90;;;3.50;;
69822;SDS011;57119;52.516;13.508;2023-02-03T01:43:31;9.02;;;3.33;;
69822;SDS011;57119;52.516;13.508;2023-02-03T01:45:59;14.80;;;4.03;;
69822;SDS011;57119;52.516;13.508;2023-02-03T01:48:28;13.68;;;4.45;;
69822;SDS011;57119;52.516;13.508;2023-02-03T01:50:57;11.02;;;3.88;;
69822;SDS011;57119;52.516;13.508;2023-02-03T01:53:24;14.05;;;4.00;;
69822;SDS011;57119;52.516;13.508;2023-02-03T01:55:49;13.03;;;4.77;;
69822;SDS011;57119;52.516;13.508;2023-02-03T01:58:17;15.27;;;4.43;;
69822;SDS011;57119;52.516;13.508;2023-02-03T02:00:48;14.73;;;5.28;;
69822;SDS011;57119;52.516;13.508;2023-02-03T02:03:14;15.80;;;4.40;;
69822;SDS011;57119;52.516;13.508;2023-02-03T02:05:47;13.77;;;4.85;;
69822;SDS011;57119;52.516;13.508;2023-02-03T02:08:14;14.95;;;4.10;;
69822;SDS011;57119;52.516;13.508;2023-02-03T02:10:42;15.93;;;4.45;;
69822;SDS011;57119;52.516;13.508;2023-02-03T02:13:08;10.77;;;3.87;;
69822;SDS011;57119;52.516;13.508;2023-02-03T02:15:39;13.10;;;4.70;;
69822;SDS011;57119;52.516;13.508;2023-02-03T02:18:19;13.73;;;5.00;;
69822;SDS011;57119;52.516;13.508;2023-02-03T02:26:59;11.80;;;4.30;;
69822;SDS011;57119;52.516;13.508;2023-02-03T02:32:13;10.13;;;4.30;;
69822;SDS011;57119;52.516;13.508;2023-02-03T02:37:48;12.05;;;4.60;;
69822;SDS011;57119;52.516;13.508;2023-02-03T02:45:51;8.77;;;3.63;;
69822;SDS011;57119;52.516;13.508;2023-02-03T02:48:22;9.10;;;3.45;;
69822;SDS011;57119;52.516;13.508;2023-02-03T02:51:20;11.20;;;3.58;;
69822;SDS011;57119;52.516;13.508;2023-02-03T02:53:53;8.35;;;3.22;;
69822;SDS011;57119;52.516;13.508;2023-02-03T02:56:21;12.18;;;3.80;;
69822;SDS011;57119;52.516;13.508;2023-02-03T02:58:49;9.20;;;3.28;;
69822;SDS011;57119;52.516;13.508;2023-02-03T03:01:15;7.70;;;3.35;;
69822;SDS011;57119;52.516;13.508;2023-02-03T03:03:41;7.28;;;2.58;;
69822;SDS011;57119;52.516;13.508;2023-02-03T03:06:14;8.33;;;2.50;;
69822;SDS011;57119;52.516;13.508;2023-02-03T03:08:57;8.32;;;2.83;;
69822;SDS011;57119;52.516;13.508;2023-02-03T03:11:24;8.25;;;3.03;;
69822;SDS011;57119;52.516;13.508;2023-02-03T03:13:54;7.05;;;2.72;;
69822;SDS011;57119;52.516;13.508;2023-02-03T03:16:23;7.85;;;3.40;;
69822;SDS011;57119;52.516;13.508;2023-02-03T03:21:24;7.40;;;2.45;;
69822;SDS011;57119;52.516;13.508;2023-02-03T03:23:54;8.98;;;2.75;;
69822;SDS011;57119;52.516;13.508;2023-02-03T03:27:11;7.18;;;2.20;;
69822;SDS011;57119;52.516;13.508;2023-02-03T03:29:23;7.30;;;2.72;;
69822;SDS011;57119;52.516;13.508;2023-02-03T03:31:54;7.43;;;3.00;;
69822;SDS011;57119;52.516;13.508;2023-02-03T03:34:20;7.47;;;3.17;;
69822;SDS011;57119;52.516;13.508;2023-02-03T03:39:24;8.20;;;3.10;;
69822;SDS011;57119;52.516;13.508;2023-02-03T03:41:59;7.85;;;2.53;;
69822;SDS011;57119;52.516;13.508;2023-02-03T03:44:29;6.43;;;2.33;;
69822;SDS011;57119;52.516;13.508;2023-02-03T03:47:23;7.30;;;2.88;;
69822;SDS011;57119;52.516;13.508;2023-02-03T03:49:52;6.13;;;2.17;;
69822;SDS011;57119;52.516;13.508;2023-02-03T03:52:24;6.75;;;2.33;;
69822;SDS011;57119;52.516;13.508;2023-02-03T03:54:54;7.40;;;2.70;;
69822;SDS011;57119;52.516;13.508;2023-02-03T03:57:21;5.03;;;1.70;;
69822;SDS011;57119;52.516;13.508;2023-02-03T03:59:50;5.60;;;2.03;;
69822;SDS011;57119;52.516;13.508;2023-02-03T04:02:17;5.85;;;2.30;;
69822;SDS011;57119;52.516;13.508;2023-02-03T04:04:43;5.88;;;2.08;;
69822;SDS011;57119;52.516;13.508;2023-02-03T04:07:13;5.60;;;1.98;;
69822;SDS011;57119;52.516;13.508;2023-02-03T04:09:39;6.68;;;2.45;;
69822;SDS011;57119;52.516;13.508;2023-02-03T04:12:08;6.25;;;2.10;;
69822;SDS011;57119;52.516;13.508;2023-02-03T04:14:38;7.60;;;2.35;;
69822;SDS011;57119;52.516;13.508;2023-02-03T04:17:04;6.97;;;2.50;;
69822;SDS011;57119;52.516;13.508;2023-02-03T04:19:30;6.27;;;2.40;;
69822;SDS011;57119;52.516;13.508;2023-02-03T04:21:55;7.03;;;2.63;;
69822;SDS011;57119;52.516;13.508;2023-02-03T04:24:21;6.63;;;2.53;;
69822;SDS011;57119;52.516;13.508;2023-02-03T04:26:46;6.43;;;2.50;;
69822;SDS011;57119;52.516;13.508;2023-02-03T04:29:11;6.82;;;2.63;;
69822;SDS011;57119;52.516;13.508;2023-02-03T04:31:37;9.00;;;2.90;;
69822;SDS011;57119;52.516;13.508;2023-02-03T04:34:02;9.20;;;2.63;;
69822;SDS011;57119;52.516;13.508;2023-02-03T04:36:28;7.32;;;3.05;;
69822;SDS011;57119;52.516;13.508;2023-02-03T04:38:54;7.90;;;3.10;;
69822;SDS011;57119;52.516;13.508;2023-02-03T04:41:19;9.03;;;3.00;;
69822;SDS011;57119;52.516;13.508;2023-02-03T04:43:44;8.57;;;3.93;;
69822;SDS011;57119;52.516;13.508;2023-02-03T04:46:10;8.02;;;3.85;;
69822;SDS011;57119;52.516;13.508;2023-02-03T04:48:35;9.47;;;4.00;;
69822;SDS011;57119;52.516;13.508;2023-02-03T04:51:02;9.03;;;4.07;;
69822;SDS011;57119;52.516;13.508;2023-02-03T04:53:31;10.65;;;4.40;;
69822;SDS011;57119;52.516;13.508;2023-02-03T04:55:57;12.50;;;4.97;;
69822;SDS011;57119;52.516;13.508;2023-02-03T04:58:22;11.95;;;5.40;;
69822;SDS011;57119;52.516;13.508;2023-02-03T05:00:48;11.63;;;5.50;;
69822;SDS011;57119;52.516;13.508;2023-02-03T05:03:14;11.47;;;5.20;;
69822;SDS011;57119;52.516;13.508;2023-02-03T05:05:39;10.88;;;5.00;;
69822;SDS011;57119;52.516;13.508;2023-02-03T05:08:04;10.93;;;5.10;;
69822;SDS011;57119;52.516;13.508;2023-02-03T05:10:30;14.13;;;6.57;;
69822;SDS011;57119;52.516;13.508;2023-02-03T05:12:56;14.10;;;6.30;;
69822;SDS011;57119;52.516;13.508;2023-02-03T05:15:21;16.05;;;6.97;;
69822;SDS011;57119;52.516;13.508;2023-02-03T05:17:47;15.70;;;6.50;;
69822;SDS011;57119;52.516;13.508;2023-02-03T05:20:12;19.20;;;8.13;;
69822;SDS011;57119;52.516;13.508;2023-02-03T05:22:37;18.73;;;8.00;;
69822;SDS011;57119;52.516;13.508;2023-02-03T05:25:03;17.30;;;8.15;;
69822;SDS011;57119;52.516;13.508;2023-02-03T05:27:29;19.40;;;8.20;;
69822;SDS011;57119;52.516;13.508;2023-02-03T05:29:54;17.75;;;8.13;;
69822;SDS011;57119;52.516;13.508;2023-02-03T05:32:20;16.30;;;7.90;;
69822;SDS011;57119;52.516;13.508;2023-02-03T05:34:45;20.77;;;8.53;;
69822;SDS011;57119;52.516;13.508;2023-02-03T05:37:10;18.03;;;8.60;;
69822;SDS011;57119;52.516;13.508;2023-02-03T05:39:36;20.17;;;9.10;;
69822;SDS011;57119;52.516;13.508;2023-02-03T05:42:01;20.95;;;9.32;;
69822;SDS011;57119;52.516;13.508;2023-02-03T05:44:28;20.23;;;9.63;;
69822;SDS011;57119;52.516;13.508;2023-02-03T05:46:54;20.53;;;9.33;;
69822;SDS011;57119;52.516;13.508;2023-02-03T05:49:21;24.38;;;10.10;;
69822;SDS011;57119;52.516;13.508;2023-02-03T05:51:47;24.20;;;10.47;;
69822;SDS011;57119;52.516;13.508;2023-02-03T05:54:13;23.00;;;10.13;;
69822;SDS011;57119;52.516;13.508;2023-02-03T05:56:38;24.17;;;10.50;;
69822;SDS011;57119;52.516;13.508;2023-02-03T05:59:04;23.67;;;10.95;;
69822;SDS011;57119;52.516;13.508;2023-02-03T06:01:30;24.30;;;10.80;;
69822;SDS011;57119;52.516;13.508;2023-02-03T06:03:56;27.67;;;10.68;;
69822;SDS011;57119;52.516;13.508;2023-02-03T06:06:21;27.47;;;12.60;;
69822;SDS011;57119;52.516;13.508;2023-02-03T06:08:47;27.58;;;12.02;;
69822;SDS011;57119;52.516;13.508;2023-02-03T06:11:13;23.90;;;11.90;;
69822;SDS011;57119;52.516;13.508;2023-02-03T06:13:38;23.83;;;10.98;;
69822;SDS011;57119;52.516;13.508;2023-02-03T06:16:04;25.43;;;12.30;;
69822;SDS011;57119;52.516;13.508;2023-02-03T06:18:29;24.37;;;10.70;;
69822;SDS011;57119;52.516;13.508;2023-02-03T06:20:55;24.63;;;11.68;;
69822;SDS011;57119;52.516;13.508;2023-02-03T06:23:20;31.47;;;12.60;;
69822;SDS011;57119;52.516;13.508;2023-02-03T06:25:50;24.83;;;11.80;;
69822;SDS011;57119;52.516;13.508;2023-02-03T06:28:16;30.58;;;12.68;;
69822;SDS011;57119;52.516;13.508;2023-02-03T06:30:42;27.48;;;11.68;;
69822;SDS011;57119;52.516;13.508;2023-02-03T06:33:08;24.87;;;11.20;;
69822;SDS011;57119;52.516;13.508;2023-02-03T06:35:33;28.40;;;12.37;;
69822;SDS011;57119;52.516;13.508;2023-02-03T06:37:59;26.67;;;12.25;;
69822;SDS011;57119;52.516;13.508;2023-02-03T06:40:24;27.13;;;11.40;;
69822;SDS011;57119;52.516;13.508;2023-02-03T06:42:50;23.97;;;11.00;;
69822;SDS011;57119;52.516;13.508;2023-02-03T06:45:15;23.00;;;10.05;;
69822;SDS011;57119;52.516;13.508;2023-02-03T06:47:42;22.83;;;11.43;;
69822;SDS011;57119;52.516;13.508;2023-02-03T06:50:08;24.67;;;10.82;;
69822;SDS011;57119;52.516;13.508;2023-02-03T06:52:35;24.85;;;11.30;;
69822;SDS011;57119;52.516;13.508;2023-02-03T06:55:01;24.63;;;10.43;;
69822;SDS011;57119;52.516;13.508;2023-02-03T06:57:28;22.45;;;10.45;;
69822;SDS011;57119;52.516;13.508;2023-02-03T06:59:53;21.37;;;10.73;;
69822;SDS011;57119;52.516;13.508;2023-02-03T07:02:19;23.42;;;11.55;;
69822;SDS011;57119;52.516;13.508;2023-02-03T07:04:44;24.70;;;10.30;;
69822;SDS011;57119;52.516;13.508;2023-02-03T07:07:10;25.43;;;10.53;;
69822;SDS011;57119;52.516;13.508;2023-02-03T07:09:36;23.45;;;10.07;;
69822;SDS011;57119;52.516;13.508;2023-02-03T07:12:02;23.52;;;10.88;;
69822;SDS011;57119;52.516;13.508;2023-02-03T07:14:28;24.23;;;11.13;;
69822;SDS011;57119;52.516;13.508;2023-02-03T07:16:55;22.65;;;10.18;;
69822;SDS011;57119;52.516;13.508;2023-02-03T07:19:20;20.85;;;10.63;;
69822;SDS011;57119;52.516;13.508;2023-02-03T07:21:46;24.37;;;10.33;;
69822;SDS011;57119;52.516;13.508;2023-02-03T07:24:11;20.17;;;9.43;;
69822;SDS011;57119;52.516;13.508;2023-02-03T07:26:36;22.43;;;10.60;;
69822;SDS011;57119;52.516;13.508;2023-02-03T07:29:03;21.23;;;10.40;;
69822;SDS011;57119;52.516;13.508;2023-02-03T07:31:29;18.55;;;9.38;;
69822;SDS011;57119;52.516;13.508;2023-02-03T07:33:54;19.83;;;9.83;;
69822;SDS011;57119;52.516;13.508;2023-02-03T07:36:20;18.57;;;9.37;;
69822;SDS011;57119;52.516;13.508;2023-02-03T07:38:46;16.80;;;8.68;;
69822;SDS011;57119;52.516;13.508;2023-02-03T07:41:11;18.70;;;9.10;;
69822;SDS011;57119;52.516;13.508;2023-02-03T07:43:37;22.90;;;8.80;;
69822;SDS011;57119;52.516;13.508;2023-02-03T07:46:02;19.92;;;9.43;;
69822;SDS011;57119;52.516;13.508;2023-02-03T07:48:28;18.83;;;8.77;;
69822;SDS011;57119;52.516;13.508;2023-02-03T07:50:53;19.95;;;9.02;;
69822;SDS011;57119;52.516;13.508;2023-02-03T07:53:19;16.33;;;7.77;;
69822;SDS011;57119;52.516;13.508;2023-02-03T07:55:44;17.13;;;9.37;;
69822;SDS011;57119;52.516;13.508;2023-02-03T07:58:09;18.00;;;7.33;;
69822;SDS011;57119;52.516;13.508;2023-02-03T08:00:35;17.13;;;7.47;;
69822;SDS011;57119;52.516;13.508;2023-02-03T08:03:01;15.48;;;6.85;;
69822;SDS011;57119;52.516;13.508;2023-02-03T08:05:26;14.18;;;6.43;;
69822;SDS011;57119;52.516;13.508;2023-02-03T08:07:53;14.70;;;7.23;;
69822;SDS011;57119;52.516;13.508;2023-02-03T08:10:18;14.45;;;7.05;;
69822;SDS011;57119;52.516;13.508;2023-02-03T08:12:44;16.00;;;6.70;;
69822;SDS011;57119;52.516;13.508;2023-02-03T08:15:11;10.77;;;5.75;;
69822;SDS011;57119;52.516;13.508;2023-02-03T08:17:37;15.48;;;6.90;;
69822;SDS011;57119;52.516;13.508;2023-02-03T08:20:06;12.33;;;5.10;;
69822;SDS011;57119;52.516;13.508;2023-02-03T08:22:32;13.07;;;6.78;;
69822;SDS011;57119;52.516;13.508;2023-02-03T08:24:58;15.17;;;6.70;;
69822;SDS011;57119;52.516;13.508;2023-02-03T08:27:23;12.50;;;5.60;;
69822;SDS011;57119;52.516;13.508;2023-02-03T08:29:48;13.43;;;5.82;;
69822;SDS011;57119;52.516;13.508;2023-02-03T08:32:18;17.43;;;7.10;;
69822;SDS011;57119;52.516;13.508;2023-02-03T08:34:45;13.70;;;6.47;;
69822;SDS011;57119;52.516;13.508;2023-02-03T08:37:11;14.77;;;6.27;;
69822;SDS011;57119;52.516;13.508;2023-02-03T08:39:38;14.02;;;6.13;;
69822;SDS011;57119;52.516;13.508;2023-02-03T08:42:04;13.90;;;5.97;;
69822;SDS011;57119;52.516;13.508;2023-02-03T08:44:30;10.27;;;3.88;;
69822;SDS011;57119;52.516;13.508;2023-02-03T08:46:56;12.63;;;4.95;;
69822;SDS011;57119;52.516;13.508;2023-02-03T08:49:22;10.55;;;4.60;;
69822;SDS011;57119;52.516;13.508;2023-02-03T08:51:50;11.55;;;5.32;;
69822;SDS011;57119;52.516;13.508;2023-02-03T08:54:16;10.87;;;5.03;;
69822;SDS011;57119;52.516;13.508;2023-02-03T08:56:41;9.45;;;3.90;;
69822;SDS011;57119;52.516;13.508;2023-02-03T08:59:07;9.00;;;4.53;;
69822;SDS011;57119;52.516;13.508;2023-02-03T09:01:32;9.90;;;4.67;;
69822;SDS011;57119;52.516;13.508;2023-02-03T09:03:58;13.43;;;4.90;;
69822;SDS011;57119;52.516;13.508;2023-02-03T09:06:26;9.02;;;4.57;;
69822;SDS011;57119;52.516;13.508;2023-02-03T09:08:53;9.98;;;4.60;;
69822;SDS011;57119;52.516;13.508;2023-02-03T09:11:18;9.50;;;4.13;;
69822;SDS011;57119;52.516;13.508;2023-02-03T09:13:44;11.30;;;4.70;;
69822;SDS011;57119;52.516;13.508;2023-02-03T09:16:10;8.67;;;3.50;;
69822;SDS011;57119;52.516;13.508;2023-02-03T09:18:37;8.80;;;4.13;;
69822;SDS011;57119;52.516;13.508;2023-02-03T09:21:03;8.00;;;3.80;;
69822;SDS011;57119;52.516;13.508;2023-02-03T09:23:29;8.98;;;3.38;;
69822;SDS011;57119;52.516;13.508;2023-02-03T09:25:55;9.27;;;3.50;;
69822;SDS011;57119;52.516;13.508;2023-02-03T09:28:20;8.57;;;3.30;;
69822;SDS011;57119;52.516;13.508;2023-02-03T09:30:46;8.00;;;3.15;;
69822;SDS011;57119;52.516;13.508;2023-02-03T09:33:11;9.17;;;4.00;;
69822;SDS011;57119;52.516;13.508;2023-02-03T09:35:37;7.43;;;3.67;;
69822;SDS011;57119;52.516;13.508;2023-02-03T09:38:03;8.10;;;3.20;;
69822;SDS011;57119;52.516;13.508;2023-02-03T09:40:32;6.70;;;3.10;;
69822;SDS011;57119;52.516;13.508;2023-02-03T09:43:02;7.63;;;3.10;;
69822;SDS011;57119;52.516;13.508;2023-02-03T09:45:29;7.38;;;3.15;;
69822;SDS011;57119;52.516;13.508;2023-02-03T09:47:57;8.75;;;3.20;;
69822;SDS011;57119;52.516;13.508;2023-02-03T09:50:31;9.20;;;3.27;;
69822;SDS011;57119;52.516;13.508;2023-02-03T09:53:01;7.68;;;3.20;;
69822;SDS011;57119;52.516;13.508;2023-02-03T10:00:44;7.50;;;2.67;;
69822;SDS011;57119;52.516;13.508;2023-02-03T10:03:16;7.73;;;3.30;;
69822;SDS011;57119;52.516;13.508;2023-02-03T10:17:28;10.37;;;2.00;;
69822;SDS011;57119;52.516;13.508;2023-02-03T10:22:30;8.32;;;2.90;;
69822;SDS011;57119;52.516;13.508;2023-02-03T10:25:04;6.13;;;2.78;;
69822;SDS011;57119;52.516;13.508;2023-02-03T10:27:40;6.55;;;2.63;;
69822;SDS011;57119;52.516;13.508;2023-02-03T10:30:20;6.87;;;2.13;;
69822;SDS011;57119;52.516;13.508;2023-02-03T10:32:48;5.45;;;2.25;;
69822;SDS011;57119;52.516;13.508;2023-02-03T10:35:18;6.32;;;1.90;;
69822;SDS011;57119;52.516;13.508;2023-02-03T10:37:49;5.65;;;1.55;;
69822;SDS011;57119;52.516;13.508;2023-02-03T10:40:18;5.65;;;2.00;;
69822;SDS011;57119;52.516;13.508;2023-02-03T10:42:46;6.23;;;2.20;;
69822;SDS011;57119;52.516;13.508;2023-02-03T10:45:33;5.80;;;1.60;;
69822;SDS011;57119;52.516;13.508;2023-02-03T10:48:01;3.90;;;0.93;;
69822;SDS011;57119;52.516;13.508;2023-02-03T10:50:28;5.70;;;1.17;;
69822;SDS011;57119;52.516;13.508;2023-02-03T10:55:47;6.47;;;1.03;;
69822;SDS011;57119;52.516;13.508;2023-02-03T10:58:16;9.05;;;1.02;;
69822;SDS011;57119;52.516;13.508;2023-02-03T11:00:56;8.07;;;1.13;;
69822;SDS011;57119;52.516;13.508;2023-02-03T11:03:29;7.90;;;0.95;;
69822;SDS011;57119;52.516;13.508;2023-02-03T11:06:12;6.20;;;1.00;;
69822;SDS011;57119;52.516;13.508;2023-02-03T11:08:41;10.67;;;0.80;;
69822;SDS011;57119;52.516;13.508;2023-02-03T11:11:12;6.97;;;0.98;;
69822;SDS011;57119;52.516;13.508;2023-02-03T11:13:39;5.93;;;0.90;;
69822;SDS011;57119;52.516;13.508;2023-02-03T11:16:06;7.30;;;1.13;;
69822;SDS011;57119;52.516;13.508;2023-02-03T11:26:50;5.95;;;1.25;;
69822;SDS011;57119;52.516;13.508;2023-02-03T11:29:30;11.20;;;1.57;;
69822;SDS011;57119;52.516;13.508;2023-02-03T11:32:02;11.35;;;1.23;;
69822;SDS011;57119;52.516;13.508;2023-02-03T11:42:31;9.03;;;1.50;;
69822;SDS011;57119;52.516;13.508;2023-02-03T12:01:23;16.13;;;2.97;;
69822;SDS011;57119;52.516;13.508;2023-02-03T12:04:09;16.30;;;2.80;;
69822;SDS011;57119;52.516;13.508;2023-02-03T12:09:47;7.90;;;1.87;;
69822;SDS011;57119;52.516;13.508;2023-02-03T12:15:13;15.18;;;4.97;;
69822;SDS011;57119;52.516;13.508;2023-02-03T12:18:15;10.90;;;3.03;;
69822;SDS011;57119;52.516;13.508;2023-02-03T12:23:54;14.73;;;2.30;;
69822;SDS011;57119;52.516;13.508;2023-02-03T12:29:18;18.60;;;3.35;;
69822;SDS011;57119;52.516;13.508;2023-02-03T12:34:37;13.85;;;2.08;;
69822;SDS011;57119;52.516;13.508;2023-02-03T12:40:02;15.98;;;2.85;;
69822;SDS011;57119;52.516;13.508;2023-02-03T12:42:37;17.83;;;3.00;;
69822;SDS011;57119;52.516;13.508;2023-02-03T12:47:37;16.48;;;3.60;;
69822;SDS011;57119;52.516;13.508;2023-02-03T12:50:20;14.83;;;2.93;;
69822;SDS011;57119;52.516;13.508;2023-02-03T12:53:11;17.30;;;3.28;;
69822;SDS011;57119;52.516;13.508;2023-02-03T12:55:51;16.90;;;2.70;;
69822;SDS011;57119;52.516;13.508;2023-02-03T12:58:26;14.75;;;2.15;;
69822;SDS011;57119;52.516;13.508;2023-02-03T13:06:31;10.25;;;1.40;;
69822;SDS011;57119;52.516;13.508;2023-02-03T13:09:23;10.73;;;1.42;;
69822;SDS011;57119;52.516;13.508;2023-02-03T13:11:55;6.78;;;1.35;;
69822;SDS011;57119;52.516;13.508;2023-02-03T13:14:36;14.38;;;1.30;;
69822;SDS011;57119;52.516;13.508;2023-02-03T13:17:14;9.00;;;1.30;;
69822;SDS011;57119;52.516;13.508;2023-02-03T13:19:48;10.20;;;1.38;;
69822;SDS011;57119;52.516;13.508;2023-02-03T13:22:16;9.63;;;1.30;;
69822;SDS011;57119;52.516;13.508;2023-02-03T13:27:48;17.42;;;2.10;;
69822;SDS011;57119;52.516;13.508;2023-02-03T13:34:19;9.90;;;1.70;;
69822;SDS011;57119;52.516;13.508;2023-02-03T13:39:28;20.85;;;2.42;;
69822;SDS011;57119;52.516;13.508;2023-02-03T13:44:43;14.30;;;1.97;;
69822;SDS011;57119;52.516;13.508;2023-02-03T13:47:14;9.18;;;2.72;;
69822;SDS011;57119;52.516;13.508;2023-02-03T13:49:42;12.77;;;2.35;;
69822;SDS011;57119;52.516;13.508;2023-02-03T13:52:33;15.43;;;2.58;;
69822;SDS011;57119;52.516;13.508;2023-02-03T13:54:59;13.32;;;3.60;;
69822;SDS011;57119;52.516;13.508;2023-02-03T13:57:28;11.20;;;2.10;;
69822;SDS011;57119;52.516;13.508;2023-02-03T13:59:58;12.13;;;2.50;;
69822;SDS011;57119;52.516;13.508;2023-02-03T14:04:50;20.97;;;5.00;;
69822;SDS011;57119;52.516;13.508;2023-02-03T14:12:36;14.93;;;2.20;;
69822;SDS011;57119;52.516;13.508;2023-02-03T14:15:18;18.98;;;2.55;;
69822;SDS011;57119;52.516;13.508;2023-02-03T14:18:00;13.98;;;2.30;;
69822;SDS011;57119;52.516;13.508;2023-02-03T14:22:53;18.57;;;2.50;;
69822;SDS011;57119;52.516;13.508;2023-02-03T14:25:22;12.85;;;2.50;;
69822;SDS011;57119;52.516;13.508;2023-02-03T14:27:57;15.63;;;2.55;;
69822;SDS011;57119;52.516;13.508;2023-02-03T14:30:27;17.83;;;2.13;;
69822;SDS011;57119;52.516;13.508;2023-02-03T14:32:59;15.98;;;2.65;;
69822;SDS011;57119;52.516;13.508;2023-02-03T14:35:29;18.27;;;2.30;;
69822;SDS011;57119;52.516;13.508;2023-02-03T14:38:07;16.65;;;2.40;;
69822;SDS011;57119;52.516;13.508;2023-02-03T14:40:49;22.55;;;3.03;;
69822;SDS011;57119;52.516;13.508;2023-02-03T14:51:13;26.20;;;7.90;;
69822;SDS011;57119;52.516;13.508;2023-02-03T14:56:46;21.77;;;2.80;;
69822;SDS011;57119;52.516;13.508;2023-02-03T15:00:24;18.05;;;2.30;;
69822;SDS011;57119;52.516;13.508;2023-02-03T15:02:24;14.70;;;2.90;;
69822;SDS011;57119;52.516;13.508;2023-02-03T15:05:32;17.30;;;2.20;;
69822;SDS011;57119;52.516;13.508;2023-02-03T15:07:39;21.95;;;2.80;;
69822;SDS011;57119;52.516;13.508;2023-02-03T15:10:13;24.67;;;2.97;;
69822;SDS011;57119;52.516;13.508;2023-02-03T15:12:44;16.15;;;2.80;;
69822;SDS011;57119;52.516;13.508;2023-02-03T15:17:46;16.25;;;2.45;;
69822;SDS011;57119;52.516;13.508;2023-02-03T15:23:15;20.83;;;3.77;;
69822;SDS011;57119;52.516;13.508;2023-02-03T15:25:42;18.10;;;2.92;;
69822;SDS011;57119;52.516;13.508;2023-02-03T15:28:12;19.23;;;3.22;;
69822;SDS011;57119;52.516;13.508;2023-02-03T15:30:43;12.80;;;2.22;;
69822;SDS011;57119;52.516;13.508;2023-02-03T15:33:14;16.13;;;2.80;;
69822;SDS011;57119;52.516;13.508;2023-02-03T15:35:42;23.50;;;3.53;;
69822;SDS011;57119;52.516;13.508;2023-02-03T15:38:14;19.27;;;3.05;;
69822;SDS011;57119;52.516;13.508;2023-02-03T15:40:46;25.90;;;3.33;;
69822;SDS011;57119;52.516;13.508;2023-02-03T15:43:17;17.90;;;2.33;;
69822;SDS011;57119;52.516;13.508;2023-02-03T15:48:45;19.13;;;2.45;;
69822;SDS011;57119;52.516;13.508;2023-02-03T15:51:20;16.90;;;2.90;;
69822;SDS011;57119;52.516;13.508;2023-02-03T15:53:57;22.67;;;4.63;;
69822;SDS011;57119;52.516;13.508;2023-02-03T15:56:32;13.95;;;1.88;;
69822;SDS011;57119;52.516;13.508;2023-02-03T15:59:03;20.37;;;2.80;;
69822;SDS011;57119;52.516;13.508;2023-02-03T16:01:29;17.50;;;2.13;;
69822;SDS011;57119;52.516;13.508;2023-02-03T16:03:56;16.05;;;2.35;;
69822;SDS011;57119;52.516;13.508;2023-02-03T16:09:00;16.67;;;2.80;;
69822;SDS011;57119;52.516;13.508;2023-02-03T16:14:05;15.85;;;2.17;;
69822;SDS011;57119;52.516;13.508;2023-02-03T16:19:14;17.65;;;2.53;;
69822;SDS011;57119;52.516;13.508;2023-02-03T16:29:51;19.60;;;2.25;;
69822;SDS011;57119;52.516;13.508;2023-02-03T16:32:36;24.65;;;3.00;;
69822;SDS011;57119;52.516;13.508;2023-02-03T16:35:20;15.10;;;2.42;;
69822;SDS011;57119;52.516;13.508;2023-02-03T16:38:06;16.13;;;2.60;;
69822;SDS011;57119;52.516;13.508;2023-02-03T16:41:00;13.05;;;2.50;;
69822;SDS011;57119;52.516;13.508;2023-02-03T16:43:44;17.52;;;2.67;;
69822;SDS011;57119;52.516;13.508;2023-02-03T16:46:28;19.20;;;2.45;;
69822;SDS011;57119;52.516;13.508;2023-02-03T16:49:12;18.55;;;3.03;;
69822;SDS011;57119;52.516;13.508;2023-02-03T16:51:56;18.30;;;2.13;;
69822;SDS011;57119;52.516;13.508;2023-02-03T16:54:21;16.60;;;2.97;;
69822;SDS011;57119;52.516;13.508;2023-02-03T16:56:48;13.40;;;2.28;;
69822;SDS011;57119;52.516;13.508;2023-02-03T16:59:14;14.05;;;2.10;;
69822;SDS011;57119;52.516;13.508;2023-02-03T17:01:40;15.00;;;2.27;;
69822;SDS011;57119;52.516;13.508;2023-02-03T17:04:05;19.10;;;3.37;;
69822;SDS011;57119;52.516;13.508;2023-02-03T17:06:32;19.77;;;3.72;;
69822;SDS011;57119;52.516;13.508;2023-02-03T17:09:00;21.80;;;2.80;;
69822;SDS011;57119;52.516;13.508;2023-02-03T17:11:25;20.27;;;2.90;;
69822;SDS011;57119;52.516;13.508;2023-02-03T17:13:51;16.27;;;2.03;;
69822;SDS011;57119;52.516;13.508;2023-02-03T17:16:18;21.20;;;3.10;;